sensor_id;sensor_type;location;lat;lon;timestamp;temperature;humidity
45319;DHT22;31057;48.498;32.260;2022-12-08T00:16:47;0.10;99.90
45319;DHT22;31057;48.498;32.260;2022-12-08T00:18:49;0.50;99.90
45319;DHT22;31057;48.498;32.260;2022-12-08T00:20:55;0.30;99.90
45319;DHT22;31057;48.498;32.260;2022-12-08T00:22:57;0.20;99.90
45319;DHT22;31057;48.498;32.260;2022-12-08T00:24:59;0.20;99.90
45319;DHT22;31057;48.498;32.260;2022-12-08T00:27:01;0.30;99.90
45319;DHT22;31057;48.498;32.260;2022-12-08T00:29:04;0.40;99.90
45319;DHT22;31057;48.498;32.260;2022-12-08T00:31:08;0.30;99.90
45319;DHT22;31057;48.498;32.260;2022-12-08T00:33:11;0.10;99.90
45319;DHT22;31057;48.498;32.260;2022-12-08T00:35:13;0.20;99.90
45319;DHT22;31057;48.498;32.260;2022-12-08T00:37:15;0.10;99.90
45319;DHT22;31057;48.498;32.260;2022-12-08T00:39:17;0.10;99.90
45319;DHT22;31057;48.498;32.260;2022-12-08T00:41:22;0.20;99.90
45319;DHT22;31057;48.498;32.260;2022-12-08T00:43:44;0.50;99.90
45319;DHT22;31057;48.498;32.260;2022-12-08T00:45:46;0.30;99.90
45319;DHT22;31057;48.498;32.260;2022-12-08T00:47:47;0.30;99.90
45319;DHT22;31057;48.498;32.260;2022-12-08T00:49:49;0.10;99.90
45319;DHT22;31057;48.498;32.260;2022-12-08T00:51:51;0.10;99.90
45319;DHT22;31057;48.498;32.260;2022-12-08T00:53:53;0.10;99.90
45319;DHT22;31057;48.498;32.260;2022-12-08T00:55:55;0.20;99.90
45319;DHT22;31057;48.498;32.260;2022-12-08T00:58:00;0.10;99.90
45319;DHT22;31057;48.498;32.260;2022-12-08T01:00:02;0.20;99.90
45319;DHT22;31057;48.498;32.260;2022-12-08T01:02:04;0.20;99.90
45319;DHT22;31057;48.498;32.260;2022-12-08T01:04:09;0.20;99.90
45319;DHT22;31057;48.498;32.260;2022-12-08T01:06:12;0.20;99.90
45319;DHT22;31057;48.498;32.260;2022-12-08T01:08:14;0.10;99.90
45319;DHT22;31057;48.498;32.260;2022-12-08T01:10:16;0.10;99.90
45319;DHT22;31057;48.498;32.260;2022-12-08T01:12:18;0.10;99.90
45319;DHT22;31057;48.498;32.260;2022-12-08T01:14:20;0.30;99.90
45319;DHT22;31057;48.498;32.260;2022-12-08T01:16:23;0.20;99.90
45319;DHT22;31057;48.498;32.260;2022-12-08T01:18:29;0.10;99.90
45319;DHT22;31057;48.498;32.260;2022-12-08T01:20:31;0.10;99.90
45319;DHT22;31057;48.498;32.260;2022-12-08T01:22:34;0.10;99.90
45319;DHT22;31057;48.498;32.260;2022-12-08T01:24:36;0.10;99.90
45319;DHT22;31057;48.498;32.260;2022-12-08T01:26:39;0.10;99.90
45319;DHT22;31057;48.498;32.260;2022-12-08T01:28:41;0.20;99.90
45319;DHT22;31057;48.498;32.260;2022-12-08T01:30:44;0.20;99.90
45319;DHT22;31057;48.498;32.260;2022-12-08T01:32:45;0.30;99.90
45319;DHT22;31057;48.498;32.260;2022-12-08T01:34:48;0.20;99.90
45319;DHT22;31057;48.498;32.260;2022-12-08T01:36:49;0.10;99.90
45319;DHT22;31057;48.498;32.260;2022-12-08T01:38:52;0.10;99.90
45319;DHT22;31057;48.498;32.260;2022-12-08T01:40:54;0.20;99.90
45319;DHT22;31057;48.498;32.260;2022-12-08T01:42:56;0.10;99.90
45319;DHT22;31057;48.498;32.260;2022-12-08T01:45:01;0.10;99.90
45319;DHT22;31057;48.498;32.260;2022-12-08T01:47:03;0.30;99.90
45319;DHT22;31057;48.498;32.260;2022-12-08T01:51:13;0.20;99.90
45319;DHT22;31057;48.498;32.260;2022-12-08T01:53:22;0.20;99.90
45319;DHT22;31057;48.498;32.260;2022-12-08T01:55:30;0.20;99.90
45319;DHT22;31057;48.498;32.260;2022-12-08T01:57:39;0.20;99.90
45319;DHT22;31057;48.498;32.260;2022-12-08T01:59:45;0.20;99.90
45319;DHT22;31057;48.498;32.260;2022-12-08T04:17:55;0.40;99.90
45319;DHT22;31057;48.498;32.260;2022-12-08T04:19:57;0.40;99.90
45319;DHT22;31057;48.498;32.260;2022-12-08T04:21:59;0.40;99.90
45319;DHT22;31057;48.498;32.260;2022-12-08T04:24:01;0.40;99.90
45319;DHT22;31057;48.498;32.260;2022-12-08T04:26:03;0.40;99.90
45319;DHT22;31057;48.498;32.260;2022-12-08T04:28:06;0.40;99.90
45319;DHT22;31057;48.498;32.260;2022-12-08T04:30:08;0.40;99.90
45319;DHT22;31057;48.498;32.260;2022-12-08T04:32:10;0.40;99.90
45319;DHT22;31057;48.498;32.260;2022-12-08T04:34:12;0.40;99.90
45319;DHT22;31057;48.498;32.260;2022-12-08T04:36:14;0.30;99.90
45319;DHT22;31057;48.498;32.260;2022-12-08T04:38:16;0.40;99.90
45319;DHT22;31057;48.498;32.260;2022-12-08T04:40:18;0.30;99.90
45319;DHT22;31057;48.498;32.260;2022-12-08T04:42:20;0.30;99.90
45319;DHT22;31057;48.498;32.260;2022-12-08T04:44:22;0.40;99.90
45319;DHT22;31057;48.498;32.260;2022-12-08T04:46:23;0.40;99.90
45319;DHT22;31057;48.498;32.260;2022-12-08T04:48:25;0.40;99.90
45319;DHT22;31057;48.498;32.260;2022-12-08T04:50:27;0.50;99.90
45319;DHT22;31057;48.498;32.260;2022-12-08T04:52:29;0.50;99.90
45319;DHT22;31057;48.498;32.260;2022-12-08T04:54:31;0.50;99.90
45319;DHT22;31057;48.498;32.260;2022-12-08T04:56:33;0.50;99.90
45319;DHT22;31057;48.498;32.260;2022-12-08T04:58:35;0.40;99.90
45319;DHT22;31057;48.498;32.260;2022-12-08T05:00:37;0.40;99.90
45319;DHT22;31057;48.498;32.260;2022-12-08T05:02:39;0.40;99.90
45319;DHT22;31057;48.498;32.260;2022-12-08T05:04:41;0.40;99.90
45319;DHT22;31057;48.498;32.260;2022-12-08T05:06:43;0.40;99.90
45319;DHT22;31057;48.498;32.260;2022-12-08T05:08:44;0.40;99.90
45319;DHT22;31057;48.498;32.260;2022-12-08T05:10:46;0.40;99.90
45319;DHT22;31057;48.498;32.260;2022-12-08T05:12:48;0.50;99.90
45319;DHT22;31057;48.498;32.260;2022-12-08T05:14:50;0.40;99.90
45319;DHT22;31057;48.498;32.260;2022-12-08T05:16:52;0.40;99.90
45319;DHT22;31057;48.498;32.260;2022-12-08T05:18:54;0.50;99.90
45319;DHT22;31057;48.498;32.260;2022-12-08T05:20:56;0.50;99.90
45319;DHT22;31057;48.498;32.260;2022-12-08T05:22:58;0.50;99.90
45319;DHT22;31057;48.498;32.260;2022-12-08T05:25:00;0.50;99.90
45319;DHT22;31057;48.498;32.260;2022-12-08T05:27:02;0.50;99.90
45319;DHT22;31057;48.498;32.260;2022-12-08T05:29:04;0.50;99.90
45319;DHT22;31057;48.498;32.260;2022-12-08T05:31:05;0.50;99.90
45319;DHT22;31057;48.498;32.260;2022-12-08T05:33:07;0.50;99.90
45319;DHT22;31057;48.498;32.260;2022-12-08T05:35:09;0.50;99.90
45319;DHT22;31057;48.498;32.260;2022-12-08T05:37:11;0.60;99.90
45319;DHT22;31057;48.498;32.260;2022-12-08T05:39:13;0.50;99.90
45319;DHT22;31057;48.498;32.260;2022-12-08T05:41:19;0.50;99.90
45319;DHT22;31057;48.498;32.260;2022-12-08T05:43:21;0.60;99.90
45319;DHT22;31057;48.498;32.260;2022-12-08T05:45:23;0.60;99.90
45319;DHT22;31057;48.498;32.260;2022-12-08T05:47:25;0.60;99.90
45319;DHT22;31057;48.498;32.260;2022-12-08T05:49:30;0.50;99.90
45319;DHT22;31057;48.498;32.260;2022-12-08T05:51:32;0.50;99.90
45319;DHT22;31057;48.498;32.260;2022-12-08T05:53:34;0.50;99.90
45319;DHT22;31057;48.498;32.260;2022-12-08T05:55:36;0.50;99.90
45319;DHT22;31057;48.498;32.260;2022-12-08T05:57:38;0.50;99.90
45319;DHT22;31057;48.498;32.260;2022-12-08T05:59:39;0.50;99.90
45319;DHT22;31057;48.498;32.260;2022-12-08T06:01:41;0.60;99.90
45319;DHT22;31057;48.498;32.260;2022-12-08T06:03:43;0.60;99.90
45319;DHT22;31057;48.498;32.260;2022-12-08T08:13:38;1.90;99.90
45319;DHT22;31057;48.498;32.260;2022-12-08T08:15:40;1.70;99.90
45319;DHT22;31057;48.498;32.260;2022-12-08T08:17:42;1.80;99.90
45319;DHT22;31057;48.498;32.260;2022-12-08T08:19:45;1.70;99.90
45319;DHT22;31057;48.498;32.260;2022-12-08T08:21:47;1.70;99.90
45319;DHT22;31057;48.498;32.260;2022-12-08T08:23:49;1.60;99.90
45319;DHT22;31057;48.498;32.260;2022-12-08T08:25:51;1.60;99.90
45319;DHT22;31057;48.498;32.260;2022-12-08T08:27:53;1.50;99.90
45319;DHT22;31057;48.498;32.260;2022-12-08T08:29:54;1.50;99.90
45319;DHT22;31057;48.498;32.260;2022-12-08T08:31:56;1.70;99.90
45319;DHT22;31057;48.498;32.260;2022-12-08T08:33:58;1.80;99.90
45319;DHT22;31057;48.498;32.260;2022-12-08T08:36:07;1.90;99.90
45319;DHT22;31057;48.498;32.260;2022-12-08T08:38:09;1.80;99.90
45319;DHT22;31057;48.498;32.260;2022-12-08T08:40:11;1.80;99.90
45319;DHT22;31057;48.498;32.260;2022-12-08T08:42:13;1.80;99.90
45319;DHT22;31057;48.498;32.260;2022-12-08T08:44:15;1.90;99.90
45319;DHT22;31057;48.498;32.260;2022-12-08T08:46:17;1.80;99.90
45319;DHT22;31057;48.498;32.260;2022-12-08T08:48:18;1.90;99.90
45319;DHT22;31057;48.498;32.260;2022-12-08T08:50:20;2.10;99.90
45319;DHT22;31057;48.498;32.260;2022-12-08T08:52:23;2.00;99.90
45319;DHT22;31057;48.498;32.260;2022-12-08T08:54:24;1.80;99.90
45319;DHT22;31057;48.498;32.260;2022-12-08T08:56:28;1.80;99.90
45319;DHT22;31057;48.498;32.260;2022-12-08T08:58:30;1.70;99.90
45319;DHT22;31057;48.498;32.260;2022-12-08T09:00:32;1.60;99.90
45319;DHT22;31057;48.498;32.260;2022-12-08T09:02:35;1.70;99.90
45319;DHT22;31057;48.498;32.260;2022-12-08T09:04:37;1.70;99.90
45319;DHT22;31057;48.498;32.260;2022-12-08T09:06:39;1.70;99.90
45319;DHT22;31057;48.498;32.260;2022-12-08T09:08:42;1.80;99.90
45319;DHT22;31057;48.498;32.260;2022-12-08T09:10:44;1.80;99.90
45319;DHT22;31057;48.498;32.260;2022-12-08T09:12:46;1.80;99.90
45319;DHT22;31057;48.498;32.260;2022-12-08T09:14:48;1.80;99.90
45319;DHT22;31057;48.498;32.260;2022-12-08T09:16:50;1.80;99.90
45319;DHT22;31057;48.498;32.260;2022-12-08T09:18:52;1.70;99.90
45319;DHT22;31057;48.498;32.260;2022-12-08T09:20:54;1.60;99.90
45319;DHT22;31057;48.498;32.260;2022-12-08T09:22:56;1.70;99.90
45319;DHT22;31057;48.498;32.260;2022-12-08T09:24:58;1.60;99.90
45319;DHT22;31057;48.498;32.260;2022-12-08T09:27:00;1.60;99.90
45319;DHT22;31057;48.498;32.260;2022-12-08T09:29:02;1.60;99.90
45319;DHT22;31057;48.498;32.260;2022-12-08T09:31:04;1.50;99.90
45319;DHT22;31057;48.498;32.260;2022-12-08T09:33:06;1.40;99.90
45319;DHT22;31057;48.498;32.260;2022-12-08T09:35:08;1.30;99.90
45319;DHT22;31057;48.498;32.260;2022-12-08T09:37:10;1.60;99.90
45319;DHT22;31057;48.498;32.260;2022-12-08T09:39:12;1.50;99.90
45319;DHT22;31057;48.498;32.260;2022-12-08T09:45:48;1.40;99.90
45319;DHT22;31057;48.498;32.260;2022-12-08T09:48:12;1.60;99.90
45319;DHT22;31057;48.498;32.260;2022-12-08T09:52:39;1.70;99.90
45319;DHT22;31057;48.498;32.260;2022-12-08T09:54:42;1.80;99.90
45319;DHT22;31057;48.498;32.260;2022-12-08T09:56:44;1.70;99.90
45319;DHT22;31057;48.498;32.260;2022-12-08T09:58:59;1.70;99.90
45319;DHT22;31057;48.498;32.260;2022-12-08T10:01:02;1.70;99.90
45319;DHT22;31057;48.498;32.260;2022-12-08T10:03:08;1.60;99.90
45319;DHT22;31057;48.498;32.260;2022-12-08T10:05:17;1.60;99.90
45319;DHT22;31057;48.498;32.260;2022-12-08T12:19:35;1.50;99.90
45319;DHT22;31057;48.498;32.260;2022-12-08T12:21:42;1.40;99.90
45319;DHT22;31057;48.498;32.260;2022-12-08T12:23:51;1.40;99.90
45319;DHT22;31057;48.498;32.260;2022-12-08T12:25:59;1.40;99.90
45319;DHT22;31057;48.498;32.260;2022-12-08T12:28:05;1.40;99.90
45319;DHT22;31057;48.498;32.260;2022-12-08T12:30:18;1.50;99.90
45319;DHT22;31057;48.498;32.260;2022-12-08T12:32:21;1.50;99.90
45319;DHT22;31057;48.498;32.260;2022-12-08T12:34:30;1.50;99.90
45319;DHT22;31057;48.498;32.260;2022-12-08T12:36:57;1.40;99.90
45319;DHT22;31057;48.498;32.260;2022-12-08T12:39:00;1.40;99.90
45319;DHT22;31057;48.498;32.260;2022-12-08T12:41:03;1.50;99.90
45319;DHT22;31057;48.498;32.260;2022-12-08T12:43:27;1.50;99.90
45319;DHT22;31057;48.498;32.260;2022-12-08T12:45:32;1.40;99.90
45319;DHT22;31057;48.498;32.260;2022-12-08T12:50:06;1.30;99.90
45319;DHT22;31057;48.498;32.260;2022-12-08T12:54:23;1.20;99.90
45319;DHT22;31057;48.498;32.260;2022-12-08T12:56:45;1.30;99.90
45319;DHT22;31057;48.498;32.260;2022-12-08T12:58:52;1.30;99.90
45319;DHT22;31057;48.498;32.260;2022-12-08T13:03:16;1.30;99.90
45319;DHT22;31057;48.498;32.260;2022-12-08T13:05:46;1.30;99.90
45319;DHT22;31057;48.498;32.260;2022-12-08T13:10:17;1.40;99.90
45319;DHT22;31057;48.498;32.260;2022-12-08T13:12:22;1.30;99.90
45319;DHT22;31057;48.498;32.260;2022-12-08T13:14:26;1.30;99.90
45319;DHT22;31057;48.498;32.260;2022-12-08T13:16:37;1.20;99.90
45319;DHT22;31057;48.498;32.260;2022-12-08T13:18:47;1.30;99.90
45319;DHT22;31057;48.498;32.260;2022-12-08T13:23:46;1.40;99.90
45319;DHT22;31057;48.498;32.260;2022-12-08T13:27:52;1.30;99.90
45319;DHT22;31057;48.498;32.260;2022-12-08T13:32:58;1.30;99.90
45319;DHT22;31057;48.498;32.260;2022-12-08T13:35:19;1.30;99.90
45319;DHT22;31057;48.498;32.260;2022-12-08T13:37:24;1.30;99.90
45319;DHT22;31057;48.498;32.260;2022-12-08T13:41:46;1.40;99.90
45319;DHT22;31057;48.498;32.260;2022-12-08T13:43:58;1.40;99.90
45319;DHT22;31057;48.498;32.260;2022-12-08T13:46:42;1.30;99.90
45319;DHT22;31057;48.498;32.260;2022-12-08T13:49:05;1.30;99.90
45319;DHT22;31057;48.498;32.260;2022-12-08T13:51:37;1.30;99.90
45319;DHT22;31057;48.498;32.260;2022-12-08T13:54:09;1.30;99.90
45319;DHT22;31057;48.498;32.260;2022-12-08T13:56:39;1.20;99.90
45319;DHT22;31057;48.498;32.260;2022-12-08T13:59:07;1.30;99.90
45319;DHT22;31057;48.498;32.260;2022-12-08T14:01:19;1.20;99.90
45319;DHT22;31057;48.498;32.260;2022-12-08T16:17:14;1.50;99.90
45319;DHT22;31057;48.498;32.260;2022-12-08T16:19:16;1.40;99.90
45319;DHT22;31057;48.498;32.260;2022-12-08T16:21:19;1.40;99.90
45319;DHT22;31057;48.498;32.260;2022-12-08T16:23:42;1.50;99.90
45319;DHT22;31057;48.498;32.260;2022-12-08T16:25:46;1.40;99.90
45319;DHT22;31057;48.498;32.260;2022-12-08T16:28:08;1.40;99.90
45319;DHT22;31057;48.498;32.260;2022-12-08T16:30:30;1.40;99.90
45319;DHT22;31057;48.498;32.260;2022-12-08T16:32:32;1.40;99.90
45319;DHT22;31057;48.498;32.260;2022-12-08T16:34:34;1.40;99.90
45319;DHT22;31057;48.498;32.260;2022-12-08T16:36:36;1.50;99.90
45319;DHT22;31057;48.498;32.260;2022-12-08T16:38:38;1.50;99.90
45319;DHT22;31057;48.498;32.260;2022-12-08T16:40:43;1.40;99.90
45319;DHT22;31057;48.498;32.260;2022-12-08T16:43:04;1.50;99.90
45319;DHT22;31057;48.498;32.260;2022-12-08T16:45:13;1.50;99.90
45319;DHT22;31057;48.498;32.260;2022-12-08T16:47:15;1.50;99.90
45319;DHT22;31057;48.498;32.260;2022-12-08T16:49:17;1.50;99.90
45319;DHT22;31057;48.498;32.260;2022-12-08T16:51:19;1.50;99.90
45319;DHT22;31057;48.498;32.260;2022-12-08T16:53:27;1.50;99.90
45319;DHT22;31057;48.498;32.260;2022-12-08T16:55:29;1.40;99.90
45319;DHT22;31057;48.498;32.260;2022-12-08T16:57:32;1.40;99.90
45319;DHT22;31057;48.498;32.260;2022-12-08T16:59:34;1.40;99.90
45319;DHT22;31057;48.498;32.260;2022-12-08T17:01:35;1.50;99.90
45319;DHT22;31057;48.498;32.260;2022-12-08T17:03:39;1.40;99.90
45319;DHT22;31057;48.498;32.260;2022-12-08T17:05:42;1.40;99.90
45319;DHT22;31057;48.498;32.260;2022-12-08T17:07:45;1.60;99.90
45319;DHT22;31057;48.498;32.260;2022-12-08T17:09:47;1.40;99.90
45319;DHT22;31057;48.498;32.260;2022-12-08T17:11:50;1.30;99.90
45319;DHT22;31057;48.498;32.260;2022-12-08T17:13:52;1.30;99.90
45319;DHT22;31057;48.498;32.260;2022-12-08T17:15:54;1.40;99.90
45319;DHT22;31057;48.498;32.260;2022-12-08T17:17:59;1.30;99.90
45319;DHT22;31057;48.498;32.260;2022-12-08T17:20:02;1.40;99.90
45319;DHT22;31057;48.498;32.260;2022-12-08T17:22:07;1.30;99.90
45319;DHT22;31057;48.498;32.260;2022-12-08T17:24:09;1.40;99.90
45319;DHT22;31057;48.498;32.260;2022-12-08T17:26:12;1.40;99.90
45319;DHT22;31057;48.498;32.260;2022-12-08T17:28:15;1.40;99.90
45319;DHT22;31057;48.498;32.260;2022-12-08T17:30:37;1.50;99.90
45319;DHT22;31057;48.498;32.260;2022-12-08T17:32:39;1.40;99.90
45319;DHT22;31057;48.498;32.260;2022-12-08T17:34:42;1.40;99.90
45319;DHT22;31057;48.498;32.260;2022-12-08T17:36:44;1.40;99.90
45319;DHT22;31057;48.498;32.260;2022-12-08T17:38:47;1.40;99.90
45319;DHT22;31057;48.498;32.260;2022-12-08T17:40:49;1.40;99.90
45319;DHT22;31057;48.498;32.260;2022-12-08T17:42:58;1.50;99.90
45319;DHT22;31057;48.498;32.260;2022-12-08T17:45:00;1.50;99.90
45319;DHT22;31057;48.498;32.260;2022-12-08T17:47:03;1.40;99.90
45319;DHT22;31057;48.498;32.260;2022-12-08T17:49:25;1.30;99.90
45319;DHT22;31057;48.498;32.260;2022-12-08T17:51:27;1.30;99.90
45319;DHT22;31057;48.498;32.260;2022-12-08T17:53:29;1.30;99.90
45319;DHT22;31057;48.498;32.260;2022-12-08T17:55:38;1.30;99.90
45319;DHT22;31057;48.498;32.260;2022-12-08T17:57:41;1.30;99.90
45319;DHT22;31057;48.498;32.260;2022-12-08T17:59:43;1.20;99.90
45319;DHT22;31057;48.498;32.260;2022-12-08T18:01:45;1.20;99.90
45319;DHT22;31057;48.498;32.260;2022-12-08T20:14:21;1.70;99.90
45319;DHT22;31057;48.498;32.260;2022-12-08T20:16:23;1.60;99.90
45319;DHT22;31057;48.498;32.260;2022-12-08T20:18:25;1.50;99.90
45319;DHT22;31057;48.498;32.260;2022-12-08T20:20:29;1.50;99.90
45319;DHT22;31057;48.498;32.260;2022-12-08T20:22:30;1.50;99.90
45319;DHT22;31057;48.498;32.260;2022-12-08T20:24:32;1.60;99.90
45319;DHT22;31057;48.498;32.260;2022-12-08T20:26:36;1.60;99.90
45319;DHT22;31057;48.498;32.260;2022-12-08T20:28:38;1.60;99.90
45319;DHT22;31057;48.498;32.260;2022-12-08T20:30:41;1.50;99.90
45319;DHT22;31057;48.498;32.260;2022-12-08T20:32:44;1.50;99.90
45319;DHT22;31057;48.498;32.260;2022-12-08T20:34:46;1.50;99.90
45319;DHT22;31057;48.498;32.260;2022-12-08T20:36:48;1.60;99.90
45319;DHT22;31057;48.498;32.260;2022-12-08T20:38:51;1.50;99.90
45319;DHT22;31057;48.498;32.260;2022-12-08T20:40:54;1.50;99.90
45319;DHT22;31057;48.498;32.260;2022-12-08T20:42:56;1.60;99.90
45319;DHT22;31057;48.498;32.260;2022-12-08T20:44:58;1.50;99.90
45319;DHT22;31057;48.498;32.260;2022-12-08T20:47:00;1.50;99.90
45319;DHT22;31057;48.498;32.260;2022-12-08T20:49:02;1.50;99.90
45319;DHT22;31057;48.498;32.260;2022-12-08T20:51:05;1.50;99.90
45319;DHT22;31057;48.498;32.260;2022-12-08T20:53:08;1.50;99.90
45319;DHT22;31057;48.498;32.260;2022-12-08T20:55:10;1.50;99.90
45319;DHT22;31057;48.498;32.260;2022-12-08T20:57:12;1.60;99.90
45319;DHT22;31057;48.498;32.260;2022-12-08T20:59:15;1.60;99.90
45319;DHT22;31057;48.498;32.260;2022-12-08T21:01:20;1.50;99.90
45319;DHT22;31057;48.498;32.260;2022-12-08T21:03:23;1.50;99.90
45319;DHT22;31057;48.498;32.260;2022-12-08T21:05:25;1.40;99.90
45319;DHT22;31057;48.498;32.260;2022-12-08T21:07:28;1.50;99.90
45319;DHT22;31057;48.498;32.260;2022-12-08T21:09:30;1.50;99.90
45319;DHT22;31057;48.498;32.260;2022-12-08T21:11:33;1.50;99.90
45319;DHT22;31057;48.498;32.260;2022-12-08T21:13:37;1.50;99.90
45319;DHT22;31057;48.498;32.260;2022-12-08T21:15:44;1.60;99.90
45319;DHT22;31057;48.498;32.260;2022-12-08T21:17:47;1.60;99.90
45319;DHT22;31057;48.498;32.260;2022-12-08T21:19:49;1.60;99.90
45319;DHT22;31057;48.498;32.260;2022-12-08T21:21:51;1.60;99.90
45319;DHT22;31057;48.498;32.260;2022-12-08T21:23:53;1.60;99.90
45319;DHT22;31057;48.498;32.260;2022-12-08T21:25:56;1.60;99.90
45319;DHT22;31057;48.498;32.260;2022-12-08T21:27:58;1.60;99.90
45319;DHT22;31057;48.498;32.260;2022-12-08T21:30:00;1.50;99.90
45319;DHT22;31057;48.498;32.260;2022-12-08T21:32:02;1.50;99.90
45319;DHT22;31057;48.498;32.260;2022-12-08T21:34:04;1.60;99.90
45319;DHT22;31057;48.498;32.260;2022-12-08T21:36:08;1.60;99.90
45319;DHT22;31057;48.498;32.260;2022-12-08T21:38:11;1.60;99.90
45319;DHT22;31057;48.498;32.260;2022-12-08T21:40:12;1.50;99.90
45319;DHT22;31057;48.498;32.260;2022-12-08T21:42:15;1.50;99.90
45319;DHT22;31057;48.498;32.260;2022-12-08T21:44:36;1.40;99.90
45319;DHT22;31057;48.498;32.260;2022-12-08T21:46:38;1.50;99.90
45319;DHT22;31057;48.498;32.260;2022-12-08T21:48:40;1.40;99.90
45319;DHT22;31057;48.498;32.260;2022-12-08T21:50:43;1.50;99.90
45319;DHT22;31057;48.498;32.260;2022-12-08T21:52:45;1.50;99.90
45319;DHT22;31057;48.498;32.260;2022-12-08T21:54:48;1.40;99.90
45319;DHT22;31057;48.498;32.260;2022-12-08T21:56:50;1.40;99.90
45319;DHT22;31057;48.498;32.260;2022-12-08T21:58:53;1.50;99.90
45319;DHT22;31057;48.498;32.260;2022-12-08T22:00:55;1.50;99.90
45319;DHT22;31057;48.498;32.260;2022-12-08T22:02:58;1.50;99.90
45319;DHT22;31057;48.498;32.260;2022-12-08T22:05:01;1.60;99.90
45319;DHT22;31057;48.498;32.260;2022-12-08T22:07:08;1.60;99.90
45319;DHT22;31057;48.498;32.260;2022-12-08T22:09:10;1.60;99.90
45319;DHT22;31057;48.498;32.260;2022-12-08T22:11:14;1.50;99.90
45319;DHT22;31057;48.498;32.260;2022-12-08T22:13:17;1.70;99.90
45319;DHT22;31057;48.498;32.260;2022-12-08T22:15:19;1.60;99.90
45319;DHT22;31057;48.498;32.260;2022-12-08T22:17:21;1.60;99.90
45319;DHT22;31057;48.498;32.260;2022-12-08T22:19:23;1.50;99.90
45319;DHT22;31057;48.498;32.260;2022-12-08T22:21:25;1.50;99.90
45319;DHT22;31057;48.498;32.260;2022-12-08T22:23:27;1.50;99.90
45319;DHT22;31057;48.498;32.260;2022-12-08T22:25:29;1.50;99.90
45319;DHT22;31057;48.498;32.260;2022-12-08T22:27:32;1.50;99.90
45319;DHT22;31057;48.498;32.260;2022-12-08T22:29:34;1.50;99.90
45319;DHT22;31057;48.498;32.260;2022-12-08T22:31:36;1.50;99.90
45319;DHT22;31057;48.498;32.260;2022-12-08T22:33:41;1.60;99.90
45319;DHT22;31057;48.498;32.260;2022-12-08T22:35:52;1.60;99.90
45319;DHT22;31057;48.498;32.260;2022-12-08T22:37:55;1.60;99.90
45319;DHT22;31057;48.498;32.260;2022-12-08T22:39:56;1.60;99.90
45319;DHT22;31057;48.498;32.260;2022-12-08T22:41:59;1.60;99.90
45319;DHT22;31057;48.498;32.260;2022-12-08T22:44:04;1.60;99.90
45319;DHT22;31057;48.498;32.260;2022-12-08T22:46:08;1.60;99.90
45319;DHT22;31057;48.498;32.260;2022-12-08T22:48:13;1.60;99.90
45319;DHT22;31057;48.498;32.260;2022-12-08T22:50:15;1.50;99.90
45319;DHT22;31057;48.498;32.260;2022-12-08T22:52:17;1.50;99.90
45319;DHT22;31057;48.498;32.260;2022-12-08T22:54:19;1.50;99.90
45319;DHT22;31057;48.498;32.260;2022-12-08T22:56:21;1.60;99.90
45319;DHT22;31057;48.498;32.260;2022-12-08T22:58:23;1.70;99.90
45319;DHT22;31057;48.498;32.260;2022-12-08T23:00:25;1.50;99.90
45319;DHT22;31057;48.498;32.260;2022-12-08T23:02:27;1.50;99.90
45319;DHT22;31057;48.498;32.260;2022-12-08T23:04:29;1.50;99.90
45319;DHT22;31057;48.498;32.260;2022-12-08T23:06:32;1.40;99.90
45319;DHT22;31057;48.498;32.260;2022-12-08T23:08:34;1.40;99.90
45319;DHT22;31057;48.498;32.260;2022-12-08T23:10:38;1.40;99.90
45319;DHT22;31057;48.498;32.260;2022-12-08T23:12:40;1.40;99.90
45319;DHT22;31057;48.498;32.260;2022-12-08T23:14:42;1.40;99.90
45319;DHT22;31057;48.498;32.260;2022-12-08T23:16:44;1.50;99.90
45319;DHT22;31057;48.498;32.260;2022-12-08T23:18:46;1.50;99.90
45319;DHT22;31057;48.498;32.260;2022-12-08T23:20:48;1.60;99.90
45319;DHT22;31057;48.498;32.260;2022-12-08T23:22:50;1.60;99.90
45319;DHT22;31057;48.498;32.260;2022-12-08T23:24:52;1.60;99.90
45319;DHT22;31057;48.498;32.260;2022-12-08T23:26:54;1.60;99.90
45319;DHT22;31057;48.498;32.260;2022-12-08T23:28:57;1.50;99.90
45319;DHT22;31057;48.498;32.260;2022-12-08T23:30:59;1.50;99.90
45319;DHT22;31057;48.498;32.260;2022-12-08T23:33:01;1.50;99.90
45319;DHT22;31057;48.498;32.260;2022-12-08T23:35:04;1.60;99.90
45319;DHT22;31057;48.498;32.260;2022-12-08T23:37:06;1.60;99.90
45319;DHT22;31057;48.498;32.260;2022-12-08T23:39:09;1.60;99.90
45319;DHT22;31057;48.498;32.260;2022-12-08T23:41:13;1.60;99.90
45319;DHT22;31057;48.498;32.260;2022-12-08T23:43:15;1.60;99.90
45319;DHT22;31057;48.498;32.260;2022-12-08T23:45:17;1.70;99.90
45319;DHT22;31057;48.498;32.260;2022-12-08T23:47:19;1.60;99.90
45319;DHT22;31057;48.498;32.260;2022-12-08T23:49:21;1.60;99.90
45319;DHT22;31057;48.498;32.260;2022-12-08T23:51:24;1.50;99.90
45319;DHT22;31057;48.498;32.260;2022-12-08T23:53:27;1.60;99.90
45319;DHT22;31057;48.498;32.260;2022-12-08T23:55:29;1.60;99.90
45319;DHT22;31057;48.498;32.260;2022-12-08T23:57:31;1.60;99.90
45319;DHT22;31057;48.498;32.260;2022-12-08T23:59:33;1.60;99.90
